Time;durP1;ratioP1;P1;durP2;ratioP2;P2;SDS_P1;SDS_P2;PMS_P1;PMS_P2;Temp;Humidity;BMP_temperature;BMP_pressure;BME280_temperature;BME280_humidity;BME280_pressure;Samples;Min_cycle;Max_cycle;Signal;HPM_P1;HPM_P2
2022/12/03 00:00:35;;;;;;;28.77;15.17;;;;;;;;;;4955523;28;20300;-65
2022/12/03 00:03:00;;;;;;;30.17;16.03;;;;;;;;;;4990335;28;20229;-65
2022/12/03 00:05:25;;;;;;;30.07;16.03;;;;;;;;;;4980798;28;20687;-65
2022/12/03 00:07:51;;;;;;;31.53;16.70;;;;;;;;;;4984129;28;20209;-65
2022/12/03 00:10:16;;;;;;;33.30;17.97;;;;;;;;;;4990848;28;20226;-65
2022/12/03 00:12:41;;;;;;;31.13;16.77;;;;;;;;;;4992809;28;20577;-65
2022/12/03 00:15:07;;;;;;;30.73;16.33;;;;;;;;;;4992775;28;20197;-65
2022/12/03 00:17:32;;;;;;;31.27;16.77;;;;;;;;;;4992825;28;20213;-65
2022/12/03 00:19:57;;;;;;;31.83;16.97;;;;;;;;;;4993176;28;20212;-65
2022/12/03 00:22:22;;;;;;;32.00;16.50;;;;;;;;;;4992900;28;20217;-65
2022/12/03 00:24:48;;;;;;;30.80;16.00;;;;;;;;;;4992943;28;20559;-65
2022/12/03 00:27:13;;;;;;;30.47;16.90;;;;;;;;;;4993026;28;20709;-65
2022/12/03 00:29:38;;;;;;;31.67;17.17;;;;;;;;;;4992947;28;20229;-65
2022/12/03 00:32:04;;;;;;;34.13;17.17;;;;;;;;;;4992132;28;20311;-64
2022/12/03 00:34:29;;;;;;;32.63;17.83;;;;;;;;;;4993169;28;20216;-65
2022/12/03 00:36:54;;;;;;;32.40;17.97;;;;;;;;;;4999834;28;20217;-65
2022/12/03 00:39:19;;;;;;;34.53;18.43;;;;;;;;;;4995349;28;20213;-65
2022/12/03 00:41:45;;;;;;;32.43;17.03;;;;;;;;;;5012760;28;20244;-65
2022/12/03 00:44:10;;;;;;;32.47;17.80;;;;;;;;;;5012037;28;20659;-65
2022/12/03 00:46:36;;;;;;;33.43;17.30;;;;;;;;;;5011930;28;20288;-65
2022/12/03 00:49:01;;;;;;;32.93;17.83;;;;;;;;;;5012309;28;20220;-63
2022/12/03 00:51:26;;;;;;;33.00;17.27;;;;;;;;;;5012574;28;20220;-65
2022/12/03 00:53:52;;;;;;;30.43;16.70;;;;;;;;;;5012117;28;20247;-64
2022/12/03 00:56:17;;;;;;;30.80;17.00;;;;;;;;;;5012331;28;20234;-65
2022/12/03 00:58:42;;;;;;;32.83;17.47;;;;;;;;;;5011032;28;20216;-65
2022/12/03 01:01:07;;;;;;;32.97;17.53;;;;;;;;;;4991814;28;20245;-65
2022/12/03 01:03:33;;;;;;;34.30;17.57;;;;;;;;;;4992970;28;20213;-65
2022/12/03 01:05:58;;;;;;;34.20;17.63;;;;;;;;;;4992802;28;20216;-65
2022/12/03 01:08:23;;;;;;;33.13;17.47;;;;;;;;;;4991979;28;20271;-65
2022/12/03 01:10:48;;;;;;;31.47;17.40;;;;;;;;;;4996726;28;20260;-65
2022/12/03 01:13:14;;;;;;;32.40;17.67;;;;;;;;;;4999026;28;20213;-65
2022/12/03 01:15:39;;;;;;;36.10;18.30;;;;;;;;;;4999430;28;20672;-65
2022/12/03 01:18:04;;;;;;;34.47;18.07;;;;;;;;;;5004624;28;20698;-65
2022/12/03 01:20:29;;;;;;;37.13;17.73;;;;;;;;;;5004665;28;20221;-65
2022/12/03 01:22:55;;;;;;;34.97;17.70;;;;;;;;;;5008886;28;20215;-65
2022/12/03 01:25:20;;;;;;;32.33;17.10;;;;;;;;;;5012165;28;20247;-65
2022/12/03 01:27:45;;;;;;;35.27;18.77;;;;;;;;;;5011729;28;20227;-65
2022/12/03 01:30:11;;;;;;;37.20;19.20;;;;;;;;;;5011670;28;20606;-64
2022/12/03 01:32:36;;;;;;;33.90;17.57;;;;;;;;;;5014461;28;20220;-65
2022/12/03 01:35:01;;;;;;;34.63;18.80;;;;;;;;;;5015018;28;20292;-64
2022/12/03 01:37:26;;;;;;;34.97;18.60;;;;;;;;;;5015936;28;20223;-65
2022/12/03 01:39:52;;;;;;;34.37;18.20;;;;;;;;;;5016212;28;20263;-65
2022/12/03 01:42:18;;;;;;;36.40;18.50;;;;;;;;;;5014646;28;20225;-65
2022/12/03 01:44:44;;;;;;;33.23;18.33;;;;;;;;;;5015773;28;20216;-65
2022/12/03 01:47:13;;;;;;;33.37;17.50;;;;;;;;;;5015500;28;20223;-64
2022/12/03 01:49:39;;;;;;;34.50;17.37;;;;;;;;;;5015108;28;20264;-65
2022/12/03 01:52:05;;;;;;;36.30;18.40;;;;;;;;;;5015090;28;20236;-64
2022/12/03 01:54:33;;;;;;;36.43;19.17;;;;;;;;;;5014562;28;20247;-65
2022/12/03 01:56:58;;;;;;;37.57;18.37;;;;;;;;;;5006620;28;20244;-64
2022/12/03 01:59:25;;;;;;;36.17;19.03;;;;;;;;;;5001921;28;20672;-65
2022/12/03 02:01:51;;;;;;;36.27;18.53;;;;;;;;;;5006056;28;20774;-65
2022/12/03 02:04:16;;;;;;;35.63;19.63;;;;;;;;;;5014419;28;20295;-65
2022/12/03 02:06:42;;;;;;;36.53;19.27;;;;;;;;;;5015280;28;20243;-65
2022/12/03 02:09:09;;;;;;;39.47;19.70;;;;;;;;;;5015008;28;20251;-64
2022/12/03 02:11:34;;;;;;;35.63;18.80;;;;;;;;;;5014621;28;20660;-65
2022/12/03 02:14:01;;;;;;;36.03;18.90;;;;;;;;;;5015284;28;20204;-65
2022/12/03 02:16:27;;;;;;;35.33;18.43;;;;;;;;;;4989672;28;20202;-65
2022/12/03 02:18:52;;;;;;;39.83;19.80;;;;;;;;;;4975687;28;20674;-65
2022/12/03 02:21:36;;;;;;;40.80;19.40;;;;;;;;;;4981755;28;20209;-64
2022/12/03 02:24:04;;;;;;;36.13;19.20;;;;;;;;;;4997578;28;20213;-64
2022/12/03 02:26:30;;;;;;;39.47;20.00;;;;;;;;;;4995597;28;20241;-64
2022/12/03 02:28:55;;;;;;;38.97;19.93;;;;;;;;;;4995554;28;20240;-65
2022/12/03 02:31:20;;;;;;;38.60;19.03;;;;;;;;;;4994364;28;20576;-65
2022/12/03 02:33:46;;;;;;;39.33;18.93;;;;;;;;;;4995353;28;20224;-64
2022/12/03 02:36:11;;;;;;;39.73;20.10;;;;;;;;;;4995193;28;20213;-64
2022/12/03 02:38:36;;;;;;;37.07;19.77;;;;;;;;;;4993208;28;20221;-65
2022/12/03 02:41:03;;;;;;;37.33;19.17;;;;;;;;;;4993770;28;20217;-64
2022/12/03 02:43:28;;;;;;;38.93;20.27;;;;;;;;;;4995183;28;20217;-65
2022/12/03 02:45:54;;;;;;;36.10;19.20;;;;;;;;;;4993264;28;20228;-65
2022/12/03 02:48:20;;;;;;;39.77;19.50;;;;;;;;;;4994723;28;20304;-65
2022/12/03 02:50:49;;;;;;;35.90;18.97;;;;;;;;;;4995220;28;20253;-65
2022/12/03 02:53:16;;;;;;;34.50;18.77;;;;;;;;;;4993578;28;20225;-64
2022/12/03 02:55:41;;;;;;;40.00;20.17;;;;;;;;;;4993697;28;20696;-65
2022/12/03 02:58:07;;;;;;;38.47;19.63;;;;;;;;;;4976950;28;20241;-64
2022/12/03 03:00:32;;;;;;;39.70;19.80;;;;;;;;;;5000103;28;20225;-64
2022/12/03 03:02:58;;;;;;;39.13;20.27;;;;;;;;;;4993662;28;20252;-65
2022/12/03 03:05:23;;;;;;;36.87;19.10;;;;;;;;;;4993231;28;20213;-64
2022/12/03 03:07:49;;;;;;;34.90;18.60;;;;;;;;;;4992465;28;20592;-64
2022/12/03 03:10:15;;;;;;;35.37;18.57;;;;;;;;;;4994332;28;20229;-65
2022/12/03 03:12:40;;;;;;;35.80;19.27;;;;;;;;;;4994467;28;20304;-65
2022/12/03 03:15:06;;;;;;;35.20;18.10;;;;;;;;;;4992200;28;20285;-65
2022/12/03 03:17:31;;;;;;;32.50;18.87;;;;;;;;;;4994758;28;20660;-64
2022/12/03 03:19:56;;;;;;;33.83;17.77;;;;;;;;;;4993352;28;20217;-65
2022/12/03 03:22:30;;;;;;;30.90;17.53;;;;;;;;;;5004421;28;20213;-65
2022/12/03 03:24:55;;;;;;;31.70;16.77;;;;;;;;;;5012639;28;20215;-65
2022/12/03 03:27:20;;;;;;;31.40;16.73;;;;;;;;;;5013097;28;20216;-65
2022/12/03 03:29:45;;;;;;;28.57;15.33;;;;;;;;;;5013845;28;20224;-65
2022/12/03 03:32:11;;;;;;;28.67;14.50;;;;;;;;;;5013528;28;20220;-65
2022/12/03 03:34:36;;;;;;;27.90;14.80;;;;;;;;;;5013055;28;20566;-65
2022/12/03 03:37:01;;;;;;;24.77;14.53;;;;;;;;;;5013333;28;20216;-64
2022/12/03 03:39:26;;;;;;;29.03;15.80;;;;;;;;;;5013426;28;20216;-65
2022/12/03 03:41:52;;;;;;;30.77;16.87;;;;;;;;;;5012884;28;20303;-65
2022/12/03 03:44:17;;;;;;;28.47;15.47;;;;;;;;;;5013309;28;20220;-64
2022/12/03 03:46:42;;;;;;;27.00;15.50;;;;;;;;;;5013745;28;20212;-64
2022/12/03 03:49:08;;;;;;;26.43;15.47;;;;;;;;;;5012309;28;20250;-64
2022/12/03 03:51:33;;;;;;;28.23;14.83;;;;;;;;;;5012478;28;20259;-65
2022/12/03 03:53:59;;;;;;;27.87;15.47;;;;;;;;;;5012934;28;20220;-65
2022/12/03 03:56:24;;;;;;;30.37;15.57;;;;;;;;;;5006946;28;20676;-65
2022/12/03 03:58:49;;;;;;;32.13;17.50;;;;;;;;;;4996159;28;20221;-65
2022/12/03 04:01:14;;;;;;;28.33;15.43;;;;;;;;;;5012756;28;20240;-64
2022/12/03 04:03:40;;;;;;;26.93;15.97;;;;;;;;;;5003134;28;20319;-65
2022/12/03 04:06:05;;;;;;;29.70;17.13;;;;;;;;;;5012828;28;20688;-65
2022/12/03 04:08:30;;;;;;;30.50;16.53;;;;;;;;;;5013129;28;20287;-65
2022/12/03 04:13:39;;;;;;;31.07;17.07;;;;;;;;;;4972681;28;20312;-66
2022/12/03 04:16:05;;;;;;;34.17;17.33;;;;;;;;;;4964587;28;20308;-65
2022/12/03 04:18:42;;;;;;;34.23;18.23;;;;;;;;;;4964201;28;20225;-65
2022/12/03 04:23:51;;;;;;;32.87;16.93;;;;;;;;;;4953248;28;20607;-66
2022/12/03 04:29:01;;;;;;;32.33;17.37;;;;;;;;;;4981472;28;20243;-65
2022/12/03 04:36:54;;;;;;;35.77;18.97;;;;;;;;;;4983410;28;20223;-65
2022/12/03 04:39:19;;;;;;;31.97;17.20;;;;;;;;;;4982194;28;20221;-66
2022/12/03 04:41:44;;;;;;;32.80;17.33;;;;;;;;;;4983212;28;20708;-65
2022/12/03 04:46:54;;;;;;;35.20;18.17;;;;;;;;;;4974469;28;20220;-65
2022/12/03 04:49:19;;;;;;;32.40;17.83;;;;;;;;;;4975171;28;20236;-65
2022/12/03 04:51:44;;;;;;;35.87;19.50;;;;;;;;;;4981985;28;20253;-66
2022/12/03 04:54:09;;;;;;;36.23;17.70;;;;;;;;;;4982622;28;20224;-65
2022/12/03 04:56:35;;;;;;;38.17;19.10;;;;;;;;;;4978347;28;20673;-65
2022/12/03 04:59:01;;;;;;;38.23;19.70;;;;;;;;;;4963525;28;20206;-65
2022/12/03 05:01:26;;;;;;;36.53;19.13;;;;;;;;;;4990592;28;20229;-65
2022/12/03 05:03:52;;;;;;;35.57;18.70;;;;;;;;;;4983046;28;20296;-65
2022/12/03 05:06:17;;;;;;;36.83;19.37;;;;;;;;;;4977526;28;20221;-65
2022/12/03 05:08:42;;;;;;;37.60;19.60;;;;;;;;;;4979159;28;20216;-65
2022/12/03 05:11:07;;;;;;;38.30;19.73;;;;;;;;;;4978137;28;20625;-65
2022/12/03 05:13:33;;;;;;;40.10;20.27;;;;;;;;;;4982940;28;20213;-65
2022/12/03 05:15:58;;;;;;;39.83;20.30;;;;;;;;;;4977314;28;20252;-65
2022/12/03 05:18:23;;;;;;;38.13;20.17;;;;;;;;;;4967698;28;20225;-65
2022/12/03 05:20:48;;;;;;;38.10;20.33;;;;;;;;;;4967311;28;20212;-65
2022/12/03 05:23:14;;;;;;;39.73;20.30;;;;;;;;;;4967382;28;20254;-65
2022/12/03 05:25:39;;;;;;;37.57;20.80;;;;;;;;;;4967716;28;20244;-65
2022/12/03 05:28:05;;;;;;;38.37;20.37;;;;;;;;;;4964704;28;20629;-64
2022/12/03 05:30:30;;;;;;;37.57;20.13;;;;;;;;;;4960217;28;20590;-65
2022/12/03 05:32:55;;;;;;;38.07;20.47;;;;;;;;;;4959934;28;20790;-65
2022/12/03 05:35:20;;;;;;;36.37;19.50;;;;;;;;;;4961870;28;20272;-65
2022/12/03 05:37:46;;;;;;;40.87;20.60;;;;;;;;;;4967455;28;20256;-65
2022/12/03 05:40:11;;;;;;;39.20;20.10;;;;;;;;;;4966773;28;20220;-64
2022/12/03 05:42:53;;;;;;;38.00;20.47;;;;;;;;;;4961940;28;20609;-65
2022/12/03 05:45:20;;;;;;;34.73;18.93;;;;;;;;;;4985627;28;20209;-65
2022/12/03 05:47:45;;;;;;;37.53;19.47;;;;;;;;;;4986665;28;20248;-65
2022/12/03 05:50:10;;;;;;;37.23;18.43;;;;;;;;;;4985030;28;20245;-65
2022/12/03 05:52:36;;;;;;;36.17;19.30;;;;;;;;;;4979050;28;20215;-65
2022/12/03 05:55:01;;;;;;;33.43;18.00;;;;;;;;;;4977882;28;20693;-65
2022/12/03 05:57:26;;;;;;;38.43;18.90;;;;;;;;;;4969862;28;20213;-64
2022/12/03 05:59:51;;;;;;;35.23;17.43;;;;;;;;;;4975340;28;20637;-66
2022/12/03 06:02:17;;;;;;;33.23;17.17;;;;;;;;;;4964808;28;20261;-66
2022/12/03 06:04:42;;;;;;;33.03;17.07;;;;;;;;;;4973065;28;20214;-66
2022/12/03 06:07:07;;;;;;;35.40;20.17;;;;;;;;;;4973672;28;20414;-66
2022/12/03 06:09:32;;;;;;;36.83;17.37;;;;;;;;;;4974682;28;20964;-64
2022/12/03 06:11:58;;;;;;;36.30;16.67;;;;;;;;;;4975044;28;20221;-65
2022/12/03 06:14:23;;;;;;;32.93;16.30;;;;;;;;;;4974808;28;20202;-64
2022/12/03 06:16:48;;;;;;;33.53;18.93;;;;;;;;;;4973418;28;20426;-64
2022/12/03 06:19:13;;;;;;;32.60;16.10;;;;;;;;;;4989624;28;20248;-64
2022/12/03 06:21:39;;;;;;;37.80;18.87;;;;;;;;;;4987908;28;20210;-64
2022/12/03 06:24:04;;;;;;;32.20;16.70;;;;;;;;;;4973771;28;20256;-64
2022/12/03 06:26:29;;;;;;;35.40;16.17;;;;;;;;;;4979503;28;20263;-65
2022/12/03 06:28:55;;;;;;;33.67;15.87;;;;;;;;;;4987335;28;20205;-65
2022/12/03 06:31:20;;;;;;;31.67;16.53;;;;;;;;;;4993415;28;20636;-65
2022/12/03 06:33:45;;;;;;;38.17;19.20;;;;;;;;;;4987884;28;20209;-64
2022/12/03 06:36:11;;;;;;;33.50;17.17;;;;;;;;;;4991670;28;20688;-64
2022/12/03 06:38:36;;;;;;;37.27;17.70;;;;;;;;;;4993567;28;20615;-65
2022/12/03 06:41:01;;;;;;;35.00;17.43;;;;;;;;;;4992849;28;20259;-65
2022/12/03 06:43:26;;;;;;;34.20;17.67;;;;;;;;;;4993874;28;20603;-64
2022/12/03 06:45:52;;;;;;;38.77;17.93;;;;;;;;;;4993523;28;20284;-64
2022/12/03 06:48:17;;;;;;;41.03;18.70;;;;;;;;;;4993799;28;20213;-65
2022/12/03 06:50:42;;;;;;;49.23;21.10;;;;;;;;;;4994152;28;20217;-65
2022/12/03 06:53:07;;;;;;;43.87;20.93;;;;;;;;;;4992761;28;20621;-64
2022/12/03 06:55:33;;;;;;;46.87;21.00;;;;;;;;;;4994175;28;20240;-65
2022/12/03 06:57:58;;;;;;;50.40;21.90;;;;;;;;;;4977222;28;20222;-65
2022/12/03 07:00:24;;;;;;;48.13;21.63;;;;;;;;;;4999483;28;20228;-65
2022/12/03 07:02:49;;;;;;;52.27;21.53;;;;;;;;;;4492969;28;15083607;-64
2022/12/03 07:05:14;;;;;;;51.20;24.00;;;;;;;;;;5002087;28;20759;-64
2022/12/03 07:07:40;;;;;;;44.83;20.77;;;;;;;;;;5006013;28;20213;-64
2022/12/03 07:10:05;;;;;;;48.10;22.60;;;;;;;;;;5003897;28;20660;-64
2022/12/03 07:12:31;;;;;;;47.10;21.77;;;;;;;;;;5005457;28;20300;-64
2022/12/03 07:14:57;;;;;;;51.83;22.30;;;;;;;;;;5008575;28;20217;-63
2022/12/03 07:17:22;;;;;;;49.57;21.80;;;;;;;;;;4991409;28;20227;-64
2022/12/03 07:19:47;;;;;;;49.27;23.00;;;;;;;;;;4993949;28;20220;-64
2022/12/03 07:22:12;;;;;;;49.70;22.50;;;;;;;;;;4994303;28;20218;-64
2022/12/03 07:24:38;;;;;;;54.83;24.20;;;;;;;;;;4994444;28;20225;-64
2022/12/03 07:27:03;;;;;;;53.00;23.57;;;;;;;;;;4993475;28;20221;-64
2022/12/03 07:29:28;;;;;;;54.00;24.47;;;;;;;;;;4985085;28;20233;-66
2022/12/03 07:31:53;;;;;;;57.87;24.30;;;;;;;;;;4980913;28;20228;-65
2022/12/03 07:34:19;;;;;;;54.00;24.70;;;;;;;;;;4983024;28;20201;-65
2022/12/03 07:36:44;;;;;;;54.73;25.97;;;;;;;;;;4984640;28;20229;-65
2022/12/03 07:39:09;;;;;;;51.77;23.07;;;;;;;;;;4982667;28;20666;-65
2022/12/03 07:41:34;;;;;;;56.97;24.87;;;;;;;;;;4995496;28;20218;-65
2022/12/03 07:44:00;;;;;;;52.70;23.40;;;;;;;;;;5001095;28;20711;-65
2022/12/03 07:46:25;;;;;;;49.17;22.33;;;;;;;;;;5002926;28;20215;-65
2022/12/03 07:48:50;;;;;;;49.77;22.27;;;;;;;;;;5003443;28;20300;-65
2022/12/03 07:51:16;;;;;;;52.90;24.97;;;;;;;;;;4982148;28;20229;-65
2022/12/03 07:53:41;;;;;;;56.93;26.33;;;;;;;;;;4983774;28;20409;-65
2022/12/03 07:56:06;;;;;;;53.53;25.40;;;;;;;;;;4974144;28;20218;-65
2022/12/03 07:58:32;;;;;;;61.08;31.30;;;;;;;;;;4988228;28;20424;-67
2022/12/03 08:00:57;;;;;;;56.23;25.67;;;;;;;;;;5009130;28;20252;-66
2022/12/03 08:03:22;;;;;;;56.43;25.33;;;;;;;;;;5012238;28;20299;-66
2022/12/03 08:05:48;;;;;;;57.20;24.70;;;;;;;;;;5011067;28;20259;-66
2022/12/03 08:08:13;;;;;;;54.40;24.20;;;;;;;;;;5003306;28;20212;-66
2022/12/03 08:10:38;;;;;;;60.17;24.73;;;;;;;;;;5001235;28;20229;-67
2022/12/03 08:13:05;;;;;;;54.70;24.40;;;;;;;;;;5002850;28;20388;-66
2022/12/03 08:15:30;;;;;;;54.63;24.00;;;;;;;;;;5002288;28;20307;-65
2022/12/03 08:17:57;;;;;;;54.23;23.90;;;;;;;;;;5003195;28;20307;-66
2022/12/03 08:20:24;;;;;;;51.83;23.00;;;;;;;;;;4992104;28;20219;-66
2022/12/03 08:22:50;;;;;;;55.73;23.90;;;;;;;;;;4982636;28;20221;-66
2022/12/03 08:25:19;;;;;;;54.30;23.17;;;;;;;;;;4972774;28;20331;-66
2022/12/03 08:27:44;;;;;;;57.93;23.63;;;;;;;;;;4994535;28;20220;-66
2022/12/03 08:30:10;;;;;;;52.83;23.50;;;;;;;;;;4990236;28;20217;-66
2022/12/03 08:32:36;;;;;;;54.50;23.10;;;;;;;;;;4986173;28;20225;-66
2022/12/03 08:35:01;;;;;;;52.50;22.23;;;;;;;;;;4992331;28;20247;-64
2022/12/03 08:37:27;;;;;;;50.00;21.67;;;;;;;;;;4991787;28;20580;-65
2022/12/03 08:39:53;;;;;;;50.17;21.97;;;;;;;;;;4991119;28;20288;-66
2022/12/03 08:45:23;;;;;;;48.23;21.60;;;;;;;;;;4991639;28;20706;-65
2022/12/03 08:47:48;;;;;;;53.63;22.00;;;;;;;;;;4992885;28;20267;-65
2022/12/03 08:50:29;;;;;;;57.97;23.30;;;;;;;;;;4992771;28;20224;-65
2022/12/03 08:53:13;;;;;;;52.90;21.53;;;;;;;;;;4992192;28;20252;-65
2022/12/03 08:55:41;;;;;;;54.27;22.33;;;;;;;;;;4992790;28;20556;-65
2022/12/03 08:58:26;;;;;;;55.43;22.03;;;;;;;;;;5006702;28;20255;-64
2022/12/03 09:00:57;;;;;;;55.50;22.10;;;;;;;;;;4977416;28;20704;-65
2022/12/03 09:03:23;;;;;;;59.33;23.63;;;;;;;;;;4992480;28;20209;-66
2022/12/03 09:05:48;;;;;;;57.07;22.30;;;;;;;;;;4992446;28;20213;-65
2022/12/03 09:08:13;;;;;;;60.83;22.97;;;;;;;;;;4992402;28;20213;-65
2022/12/03 09:10:39;;;;;;;52.97;22.80;;;;;;;;;;4992802;28;20578;-65
2022/12/03 09:13:04;;;;;;;54.47;22.77;;;;;;;;;;4991354;28;20213;-65
2022/12/03 09:15:29;;;;;;;57.33;22.63;;;;;;;;;;4987619;28;20213;-65
2022/12/03 09:17:55;;;;;;;55.53;21.93;;;;;;;;;;4973685;28;20241;-65
2022/12/03 09:20:20;;;;;;;56.10;22.07;;;;;;;;;;4977647;28;20217;-64
2022/12/03 09:22:45;;;;;;;52.87;23.30;;;;;;;;;;4973487;28;20210;-64
2022/12/03 09:25:10;;;;;;;49.17;20.20;;;;;;;;;;4984543;28;20209;-64
2022/12/03 09:27:36;;;;;;;51.30;21.33;;;;;;;;;;4985858;28;20214;-65
2022/12/03 09:30:01;;;;;;;48.13;20.07;;;;;;;;;;4977217;28;20701;-64
2022/12/03 09:32:26;;;;;;;44.43;19.40;;;;;;;;;;4992374;28;20227;-65
2022/12/03 09:34:52;;;;;;;39.93;18.63;;;;;;;;;;4991495;28;20235;-64
2022/12/03 09:37:17;;;;;;;43.97;19.27;;;;;;;;;;4992401;28;20264;-65
2022/12/03 09:39:42;;;;;;;40.43;18.07;;;;;;;;;;4992769;28;20331;-64
2022/12/03 09:42:08;;;;;;;38.83;16.63;;;;;;;;;;4991489;28;20300;-64
2022/12/03 09:44:33;;;;;;;38.63;16.70;;;;;;;;;;4992653;28;20592;-64
2022/12/03 09:46:59;;;;;;;37.03;16.83;;;;;;;;;;4992349;28;20668;-64
2022/12/03 09:49:24;;;;;;;37.67;17.57;;;;;;;;;;4990013;28;20279;-64
2022/12/03 09:51:49;;;;;;;37.60;16.93;;;;;;;;;;4991432;28;20300;-65
2022/12/03 09:54:19;;;;;;;37.73;16.67;;;;;;;;;;4994210;28;20213;-64
2022/12/03 09:56:45;;;;;;;35.17;15.63;;;;;;;;;;4995707;28;20213;-64
2022/12/03 09:59:12;;;;;;;37.70;16.60;;;;;;;;;;4978395;28;20617;-64
2022/12/03 10:01:37;;;;;;;38.53;16.20;;;;;;;;;;4993451;28;20320;-64
2022/12/03 10:04:02;;;;;;;39.33;17.60;;;;;;;;;;4995454;28;20320;-64
2022/12/03 10:06:28;;;;;;;43.40;18.27;;;;;;;;;;4996117;28;20618;-66
2022/12/03 10:08:53;;;;;;;43.30;18.63;;;;;;;;;;5007930;28;20263;-66
2022/12/03 10:11:19;;;;;;;49.00;21.37;;;;;;;;;;4999750;28;20670;-66
2022/12/03 10:13:44;;;;;;;44.77;18.50;;;;;;;;;;4994899;28;20263;-66
2022/12/03 10:16:11;;;;;;;47.00;19.13;;;;;;;;;;5004861;28;20197;-66
2022/12/03 10:18:36;;;;;;;43.93;18.63;;;;;;;;;;5014976;28;20541;-65
2022/12/03 10:21:02;;;;;;;48.13;19.20;;;;;;;;;;5013671;28;20741;-65
2022/12/03 10:23:28;;;;;;;44.33;19.53;;;;;;;;;;5014255;28;20240;-66
2022/12/03 10:25:54;;;;;;;43.37;19.13;;;;;;;;;;5015294;28;20220;-66
2022/12/03 10:28:26;;;;;;;68.37;28.73;;;;;;;;;;5014790;28;20209;-65
2022/12/03 10:30:52;;;;;;;41.80;17.87;;;;;;;;;;5014373;28;20235;-66
2022/12/03 10:33:17;;;;;;;39.43;16.77;;;;;;;;;;5014085;28;20213;-66
2022/12/03 10:35:42;;;;;;;42.20;16.77;;;;;;;;;;5015006;28;20228;-66
2022/12/03 10:38:16;;;;;;;41.23;17.43;;;;;;;;;;5013686;28;20251;-65
2022/12/03 10:40:42;;;;;;;38.23;16.80;;;;;;;;;;5015050;28;20215;-66
2022/12/03 10:43:15;;;;;;;42.17;17.07;;;;;;;;;;5014482;28;20610;-66
2022/12/03 10:45:41;;;;;;;36.40;16.10;;;;;;;;;;5006275;28;20212;-70
2022/12/03 10:48:16;;;;;;;45.80;19.33;;;;;;;;;;4999591;28;20673;-67
2022/12/03 10:50:45;;;;;;;39.40;16.17;;;;;;;;;;4996788;28;20228;-66
2022/12/03 10:53:10;;;;;;;41.20;15.47;;;;;;;;;;5010104;28;20228;-66
2022/12/03 10:55:37;;;;;;;37.40;16.33;;;;;;;;;;5011827;28;20208;-66
2022/12/03 10:58:02;;;;;;;41.00;16.97;;;;;;;;;;5005120;28;20208;-67
2022/12/03 11:00:27;;;;;;;39.30;17.27;;;;;;;;;;4997942;28;20687;-65
2022/12/03 11:02:52;;;;;;;45.70;18.33;;;;;;;;;;4996097;28;20225;-66
2022/12/03 11:05:19;;;;;;;40.13;16.47;;;;;;;;;;5000993;28;20216;-67
2022/12/03 11:07:44;;;;;;;36.80;15.70;;;;;;;;;;4996321;28;20209;-65
2022/12/03 11:10:13;;;;;;;41.70;16.03;;;;;;;;;;4993081;28;20231;-65
2022/12/03 11:12:38;;;;;;;37.60;16.37;;;;;;;;;;4992767;28;20210;-65
2022/12/03 11:15:05;;;;;;;37.97;15.47;;;;;;;;;;4996766;28;20219;-65
2022/12/03 11:17:41;;;;;;;41.13;17.13;;;;;;;;;;4995101;28;20201;-65
2022/12/03 11:20:18;;;;;;;35.77;15.07;;;;;;;;;;4993112;28;20216;-65
2022/12/03 11:22:44;;;;;;;36.47;15.43;;;;;;;;;;4994640;28;20631;-65
2022/12/03 11:25:25;;;;;;;42.87;18.47;;;;;;;;;;5009793;28;20244;-66
2022/12/03 11:28:09;;;;;;;40.80;16.87;;;;;;;;;;5013363;28;20263;-66
2022/12/03 11:30:47;;;;;;;39.63;16.53;;;;;;;;;;5006713;28;20235;-69
2022/12/03 11:33:19;;;;;;;40.07;16.80;;;;;;;;;;5012191;28;20216;-64
2022/12/03 11:36:01;;;;;;;34.80;14.37;;;;;;;;;;5013548;28;20259;-68
2022/12/03 11:38:37;;;;;;;37.40;16.67;;;;;;;;;;5005280;28;20265;-67
2022/12/03 11:41:11;;;;;;;37.17;15.30;;;;;;;;;;5012700;28;20231;-66
2022/12/03 11:43:52;;;;;;;40.67;16.97;;;;;;;;;;5013680;28;20216;-66
2022/12/03 11:46:18;;;;;;;45.07;17.53;;;;;;;;;;5013175;28;20228;-65
2022/12/03 11:48:44;;;;;;;42.50;16.20;;;;;;;;;;5003243;28;20282;-67
2022/12/03 11:51:15;;;;;;;43.90;18.27;;;;;;;;;;5013118;28;20685;-66
2022/12/03 11:53:40;;;;;;;47.87;19.60;;;;;;;;;;5013382;28;20223;-67
2022/12/03 11:56:07;;;;;;;51.43;20.17;;;;;;;;;;5004606;28;20213;-66
2022/12/03 11:58:33;;;;;;;48.23;19.53;;;;;;;;;;5013590;28;20208;-66
2022/12/03 12:00:59;;;;;;;46.37;21.93;;;;;;;;;;4992885;28;20213;-65
2022/12/03 12:03:26;;;;;;;54.00;23.83;;;;;;;;;;4992759;28;20221;-65
2022/12/03 12:06:02;;;;;;;50.70;20.47;;;;;;;;;;4993501;28;20298;-65
2022/12/03 12:08:27;;;;;;;151.23;67.07;;;;;;;;;;4992734;28;20216;-65
2022/12/03 12:10:52;;;;;;;51.70;20.77;;;;;;;;;;4993518;28;20225;-65
2022/12/03 12:13:24;;;;;;;51.17;22.07;;;;;;;;;;4993111;28;20209;-65
2022/12/03 12:15:50;;;;;;;53.20;21.27;;;;;;;;;;4996260;28;20207;-65
2022/12/03 12:18:34;;;;;;;54.57;21.43;;;;;;;;;;5012373;28;20205;-65
2022/12/03 12:21:18;;;;;;;59.93;25.77;;;;;;;;;;5012776;28;20212;-65
2022/12/03 12:23:43;;;;;;;62.33;26.70;;;;;;;;;;5006051;28;20220;-65
2022/12/03 12:26:08;;;;;;;55.43;23.83;;;;;;;;;;5012588;28;20596;-65
2022/12/03 12:28:33;;;;;;;56.20;23.07;;;;;;;;;;5012903;28;20208;-65
2022/12/03 12:30:59;;;;;;;61.70;30.03;;;;;;;;;;5011076;28;20438;-65
2022/12/03 12:33:25;;;;;;;59.47;21.00;;;;;;;;;;5011928;28;20220;-66
2022/12/03 12:35:50;;;;;;;53.33;22.43;;;;;;;;;;5012547;28;20219;-63
2022/12/03 12:38:16;;;;;;;54.43;23.67;;;;;;;;;;5011783;28;20687;-64
2022/12/03 12:40:43;;;;;;;53.50;21.93;;;;;;;;;;5012892;28;20239;-64
2022/12/03 12:43:09;;;;;;;53.63;20.87;;;;;;;;;;5011258;28;20220;-65
2022/12/03 12:45:34;;;;;;;51.17;21.23;;;;;;;;;;5012728;28;20275;-65
2022/12/03 12:48:02;;;;;;;51.27;21.20;;;;;;;;;;5012404;28;20691;-65
2022/12/03 12:50:27;;;;;;;52.83;20.43;;;;;;;;;;4991735;28;20225;-66
2022/12/03 12:52:55;;;;;;;58.60;20.80;;;;;;;;;;4989749;28;20217;-65
2022/12/03 12:55:21;;;;;;;55.97;21.53;;;;;;;;;;5002045;28;20220;-65
2022/12/03 12:57:46;;;;;;;52.00;20.50;;;;;;;;;;4988226;28;20213;-65
2022/12/03 13:00:14;;;;;;;58.70;21.67;;;;;;;;;;4984595;28;20225;-66
2022/12/03 13:02:40;;;;;;;51.90;21.10;;;;;;;;;;4995085;28;20244;-65
2022/12/03 13:05:08;;;;;;;55.03;21.53;;;;;;;;;;4976718;28;20237;-64
2022/12/03 13:07:33;;;;;;;52.63;21.10;;;;;;;;;;4975497;28;20213;-64
2022/12/03 13:09:59;;;;;;;54.90;20.87;;;;;;;;;;4959581;28;20550;-64
2022/12/03 13:12:25;;;;;;;54.53;21.40;;;;;;;;;;4961320;28;20576;-65
2022/12/03 13:14:51;;;;;;;52.57;20.37;;;;;;;;;;4973042;28;20553;-65
2022/12/03 13:17:18;;;;;;;51.53;20.80;;;;;;;;;;4966968;28;20220;-64
2022/12/03 13:19:43;;;;;;;50.70;20.23;;;;;;;;;;4966819;28;20225;-66
2022/12/03 13:22:10;;;;;;;54.83;20.47;;;;;;;;;;4966827;28;20214;-65
2022/12/03 13:24:45;;;;;;;49.13;19.67;;;;;;;;;;4967533;28;20217;-66
2022/12/03 13:27:16;;;;;;;54.13;20.77;;;;;;;;;;4966354;28;20276;-65
2022/12/03 13:29:41;;;;;;;45.47;18.83;;;;;;;;;;4962411;28;20722;-65
2022/12/03 13:32:10;;;;;;;52.83;19.73;;;;;;;;;;4962634;28;20280;-65
2022/12/03 13:34:35;;;;;;;67.20;28.93;;;;;;;;;;4964689;28;20902;-66
2022/12/03 13:37:01;;;;;;;51.60;20.17;;;;;;;;;;4970412;28;20300;-65
2022/12/03 13:39:28;;;;;;;48.87;20.13;;;;;;;;;;4987577;28;20252;-65
2022/12/03 13:44:40;;;;;;;55.20;23.93;;;;;;;;;;4994752;28;20596;-65
2022/12/03 13:47:12;;;;;;;48.13;21.27;;;;;;;;;;4988411;28;20244;-65
2022/12/03 13:49:38;;;;;;;57.27;23.53;;;;;;;;;;4970921;28;20578;-65
2022/12/03 13:52:08;;;;;;;54.57;22.37;;;;;;;;;;4960761;28;20249;-65
2022/12/03 13:54:36;;;;;;;45.57;20.20;;;;;;;;;;4979663;28;20466;-64
2022/12/03 13:57:04;;;;;;;50.83;20.63;;;;;;;;;;4974401;28;20225;-66
2022/12/03 13:59:29;;;;;;;47.93;19.87;;;;;;;;;;4969849;28;20218;-66
2022/12/03 14:01:55;;;;;;;53.53;20.83;;;;;;;;;;4973621;28;20245;-66
2022/12/03 14:04:20;;;;;;;49.83;20.33;;;;;;;;;;4969388;28;20274;-66
2022/12/03 14:06:45;;;;;;;51.03;21.30;;;;;;;;;;4970880;28;20222;-66
2022/12/03 14:09:11;;;;;;;53.93;20.90;;;;;;;;;;4972827;28;20243;-66
2022/12/03 14:14:20;;;;;;;53.53;20.93;;;;;;;;;;4965162;28;20740;-66
2022/12/03 14:16:46;;;;;;;50.50;20.67;;;;;;;;;;4962046;28;20226;-66
2022/12/03 14:19:11;;;;;;;53.73;21.83;;;;;;;;;;4962804;28;20507;-66
2022/12/03 14:21:37;;;;;;;54.23;20.63;;;;;;;;;;4968221;28;20213;-66
2022/12/03 14:24:02;;;;;;;54.90;21.43;;;;;;;;;;4969730;28;20225;-66
2022/12/03 14:26:27;;;;;;;48.17;20.60;;;;;;;;;;4970637;28;20241;-67
2022/12/03 14:28:53;;;;;;;50.70;21.23;;;;;;;;;;4970100;28;20263;-67
2022/12/03 14:31:18;;;;;;;51.63;22.33;;;;;;;;;;4969454;28;20711;-66
2022/12/03 14:33:43;;;;;;;51.73;21.67;;;;;;;;;;4970347;28;20217;-67
2022/12/03 14:36:09;;;;;;;48.87;21.10;;;;;;;;;;4964911;28;20591;-66